Time;durP1;ratioP1;P1;durP2;ratioP2;P2;SDS_P1;SDS_P2;PMS_P1;PMS_P2;Temp;Humidity;BMP_temperature;BMP_pressure;BME280_temperature;BME280_humidity;BME280_pressure;Samples;Min_cycle;Max_cycle;Signal;HPM_P1;HPM_P2
2022/12/01 00:00:57;;;;;;;;;;;23.60;89.80;;;;;;5048823;28;19999;-73
2022/12/01 00:03:24;;;;;;;;;;;23.40;89.40;;;;;;5054544;28;19944;-74
2022/12/01 00:06:00;;;;;;;;;;;23.50;89.70;;;;;;5046765;28;20290;-76
2022/12/01 00:08:28;;;;;;;;;;;23.60;89.90;;;;;;5048692;28;19920;-76
2022/12/01 00:10:54;;;;;;;;;;;23.70;89.00;;;;;;5043798;28;20427;-74
2022/12/01 00:13:21;;;;;;;;;;;23.70;89.60;;;;;;5056356;28;19913;-73
2022/12/01 00:15:48;;;;;;;;;;;23.80;89.60;;;;;;5041595;28;19917;-73
2022/12/01 00:18:15;;;;;;;;;;;23.80;88.70;;;;;;5055189;28;19913;-74
2022/12/01 00:20:41;;;;;;;;;;;23.60;88.80;;;;;;5041278;28;20349;-73
2022/12/01 00:23:08;;;;;;;;;;;23.60;89.10;;;;;;5048139;28;19956;-73
2022/12/01 00:25:35;;;;;;;;;;;23.50;89.30;;;;;;5044873;28;19913;-71
2022/12/01 00:28:02;;;;;;;;;;;23.60;89.30;;;;;;5053906;28;20527;-74
2022/12/01 00:30:28;;;;;;;;;;;23.60;89.40;;;;;;5041236;28;19922;-76
2022/12/01 00:32:55;;;;;;;;;;;23.60;88.60;;;;;;5051635;28;19924;-74
2022/12/01 00:35:21;;;;;;;;;;;23.50;89.60;;;;;;5044832;28;19923;-76
2022/12/01 00:37:48;;;;;;;;;;;23.50;89.60;;;;;;5054760;28;19916;-72
2022/12/01 00:40:15;;;;;;;;;;;23.50;89.60;;;;;;5055277;28;19916;-74
2022/12/01 00:42:41;;;;;;;;;;;23.20;89.50;;;;;;5037446;28;19918;-77
2022/12/01 00:45:08;;;;;;;;;;;23.30;90.30;;;;;;5042166;28;20403;-71
2022/12/01 00:47:35;;;;;;;;;;;23.50;89.30;;;;;;5052844;28;19913;-70
2022/12/01 00:50:02;;;;;;;;;;;23.40;89.20;;;;;;5055339;28;19982;-71
2022/12/01 00:52:29;;;;;;;;;;;23.50;89.70;;;;;;5056050;28;19912;-75
2022/12/01 00:54:55;;;;;;;;;;;23.80;89.00;;;;;;5040083;28;19921;-74
2022/12/01 00:57:22;;;;;;;;;;;23.90;88.70;;;;;;5039263;28;20886;-72
2022/12/01 00:59:49;;;;;;;;;;;24.10;87.90;;;;;;5045359;28;20369;-76
2022/12/01 01:02:17;;;;;;;;;;;24.10;87.00;;;;;;5059300;28;19909;-71
2022/12/01 01:04:43;;;;;;;;;;;24.10;87.40;;;;;;5057741;28;19924;-72
2022/12/01 01:07:10;;;;;;;;;;;24.10;86.80;;;;;;5059008;28;19916;-86
2022/12/01 01:09:37;;;;;;;;;;;23.80;88.60;;;;;;5052158;28;20011;-76
2022/12/01 01:12:03;;;;;;;;;;;24.00;87.90;;;;;;5058026;28;19909;-76
2022/12/01 01:14:30;;;;;;;;;;;23.70;87.90;;;;;;5059622;28;19920;-79
2022/12/01 01:16:57;;;;;;;;;;;23.80;87.80;;;;;;5056769;28;19916;-79
2022/12/01 01:19:23;;;;;;;;;;;24.00;87.60;;;;;;5058396;28;19908;-76
2022/12/01 01:21:50;;;;;;;;;;;24.30;87.10;;;;;;5058176;28;19908;-80
2022/12/01 01:24:17;;;;;;;;;;;24.40;85.90;;;;;;5054457;28;19920;-79
2022/12/01 01:26:43;;;;;;;;;;;24.60;85.50;;;;;;5060832;28;19915;-86
2022/12/01 01:29:10;;;;;;;;;;;24.70;86.10;;;;;;5044277;28;20389;-81
2022/12/01 01:31:37;;;;;;;;;;;24.70;86.10;;;;;;5054743;28;20107;-76
2022/12/01 01:34:03;;;;;;;;;;;24.70;85.30;;;;;;5059430;28;19920;-80
2022/12/01 01:36:30;;;;;;;;;;;24.90;84.10;;;;;;5066428;28;19905;-82
2022/12/01 01:38:57;;;;;;;;;;;25.00;83.70;;;;;;5058316;28;19980;-76
2022/12/01 01:41:24;;;;;;;;;;;24.70;85.30;;;;;;5052073;28;19909;-74
2022/12/01 01:43:55;;;;;;;;;;;24.30;85.60;;;;;;5056957;28;19908;-75
2022/12/01 01:46:26;;;;;;;;;;;24.40;84.70;;;;;;5039017;28;19951;-74
2022/12/01 01:48:55;;;;;;;;;;;24.40;85.90;;;;;;5037049;28;19909;-74
2022/12/01 01:51:26;;;;;;;;;;;24.70;84.80;;;;;;5048610;28;19958;-77
2022/12/01 01:53:54;;;;;;;;;;;24.70;84.80;;;;;;5056935;28;19923;-75
2022/12/01 01:56:21;;;;;;;;;;;25.00;82.60;;;;;;5057856;28;19916;-75
2022/12/01 01:58:50;;;;;;;;;;;25.40;83.30;;;;;;5049216;28;19920;-80
2022/12/01 02:01:16;;;;;;;;;;;25.50;83.70;;;;;;5037444;28;20281;-86
2022/12/01 02:03:45;;;;;;;;;;;25.60;82.30;;;;;;5037104;28;19909;-73
2022/12/01 02:06:12;;;;;;;;;;;25.60;82.00;;;;;;5036290;28;19909;-75
2022/12/01 02:08:39;;;;;;;;;;;25.80;80.40;;;;;;5038493;28;19935;-83
2022/12/01 02:11:24;;;;;;;;;;;25.80;80.20;;;;;;5056981;28;19920;-78
2022/12/01 02:14:20;;;;;;;;;;;24.90;81.40;;;;;;5047085;28;19921;-77
2022/12/01 02:16:57;;;;;;;;;;;24.50;83.60;;;;;;5056482;28;20699;-79
2022/12/01 02:19:23;;;;;;;;;;;24.70;83.00;;;;;;5056747;28;19916;-74
2022/12/01 02:22:08;;;;;;;;;;;24.90;82.40;;;;;;5056617;28;19905;-77
2022/12/01 02:25:07;;;;;;;;;;;24.70;83.20;;;;;;5056227;28;19994;-79
2022/12/01 02:27:43;;;;;;;;;;;24.70;83.30;;;;;;5044163;28;19923;-75
2022/12/01 02:30:09;;;;;;;;;;;24.50;84.10;;;;;;5055737;28;19909;-74
2022/12/01 02:32:54;;;;;;;;;;;24.50;83.70;;;;;;5056315;28;20356;-74
2022/12/01 02:35:21;;;;;;;;;;;24.60;83.30;;;;;;5056708;28;20235;-78
2022/12/01 02:37:47;;;;;;;;;;;24.50;83.90;;;;;;5051434;28;20370;-74
2022/12/01 02:40:20;;;;;;;;;;;24.40;84.70;;;;;;5036568;28;19916;-75
2022/12/01 02:42:50;;;;;;;;;;;24.60;84.10;;;;;;5040108;28;20303;-73
2022/12/01 02:45:23;;;;;;;;;;;24.70;83.50;;;;;;5054706;28;19916;-74
2022/12/01 02:47:51;;;;;;;;;;;24.40;82.60;;;;;;5055655;28;19916;-75
2022/12/01 02:50:17;;;;;;;;;;;24.50;83.70;;;;;;5056669;28;19916;-76
2022/12/01 02:52:44;;;;;;;;;;;24.80;82.80;;;;;;5056260;28;20054;-78
2022/12/01 02:55:12;;;;;;;;;;;25.00;82.20;;;;;;5055474;28;19916;-74
2022/12/01 02:57:38;;;;;;;;;;;25.00;81.30;;;;;;5054851;28;19989;-72
2022/12/01 03:00:05;;;;;;;;;;;25.00;81.20;;;;;;5035389;28;20354;-75
2022/12/01 03:02:41;;;;;;;;;;;25.10;81.80;;;;;;5046922;28;20007;-80
2022/12/01 03:05:18;;;;;;;;;;;25.30;82.10;;;;;;5054802;28;20207;-75
2022/12/01 03:07:56;;;;;;;;;;;25.30;81.10;;;;;;5056393;28;19955;-75
2022/12/01 03:10:34;;;;;;;;;;;25.10;81.40;;;;;;5055969;28;19919;-73
2022/12/01 03:13:09;;;;;;;;;;;25.30;81.30;;;;;;5054693;28;19919;-72
2022/12/01 03:15:38;;;;;;;;;;;25.90;79.70;;;;;;5056210;28;19908;-72
2022/12/01 03:18:23;;;;;;;;;;;26.00;79.50;;;;;;5048429;28;19913;-74
2022/12/01 03:20:54;;;;;;;;;;;26.10;80.50;;;;;;5047208;28;19916;-72
2022/12/01 03:23:24;;;;;;;;;;;26.60;79.10;;;;;;5055066;28;19917;-74
2022/12/01 03:25:51;;;;;;;;;;;27.20;77.30;;;;;;5055293;28;19973;-75
2022/12/01 03:28:21;;;;;;;;;;;27.10;78.00;;;;;;5054186;28;19912;-81
2022/12/01 03:30:50;;;;;;;;;;;27.90;77.40;;;;;;5057285;28;20393;-77
2022/12/01 03:33:22;;;;;;;;;;;28.30;75.10;;;;;;5052905;28;19921;-73
2022/12/01 03:35:55;;;;;;;;;;;28.40;74.80;;;;;;5055306;28;20011;-78
2022/12/01 03:38:23;;;;;;;;;;;28.30;75.10;;;;;;5035417;28;20003;-75
2022/12/01 03:40:51;;;;;;;;;;;28.40;73.80;;;;;;5037506;28;19913;-73
2022/12/01 03:43:20;;;;;;;;;;;28.20;74.30;;;;;;5044045;28;19913;-81
2022/12/01 03:46:02;;;;;;;;;;;28.40;74.80;;;;;;5058003;28;20785;-79
2022/12/01 03:48:29;;;;;;;;;;;28.70;72.50;;;;;;5052353;28;20037;-79
2022/12/01 03:51:17;;;;;;;;;;;27.80;73.50;;;;;;5049616;28;19955;-75
2022/12/01 03:53:49;;;;;;;;;;;27.60;74.10;;;;;;5056016;28;19982;-75
2022/12/01 03:56:17;;;;;;;;;;;27.50;74.20;;;;;;5049891;28;19912;-74
2022/12/01 03:58:45;;;;;;;;;;;27.10;74.90;;;;;;5057425;28;19912;-72
2022/12/01 04:01:12;;;;;;;;;;;27.20;75.70;;;;;;5053835;28;19994;-84
2022/12/01 04:03:44;;;;;;;;;;;27.30;74.30;;;;;;5053670;28;19917;-77
2022/12/01 04:06:11;;;;;;;;;;;27.60;73.50;;;;;;5052127;28;19908;-77
2022/12/01 04:08:38;;;;;;;;;;;27.80;73.30;;;;;;5050075;28;19956;-75
2022/12/01 04:12:28;;;;;;;;;;;27.00;74.70;;;;;;5034596;28;19920;-75
2022/12/01 04:13:51;;;;;;;;;;;26.70;75.70;;;;;;5038765;28;19931;-79
2022/12/01 04:16:18;;;;;;;;;;;26.80;75.50;;;;;;5041130;28;20011;-74
2022/12/01 04:18:45;;;;;;;;;;;26.80;74.20;;;;;;5056872;28;19962;-78
2022/12/01 04:21:16;;;;;;;;;;;26.90;74.80;;;;;;5036189;28;19908;-84
2022/12/01 04:24:01;;;;;;;;;;;26.20;76.10;;;;;;5051018;28;19935;-78
2022/12/01 04:26:30;;;;;;;;;;;25.40;77.60;;;;;;5044963;28;20011;-73
2022/12/01 04:28:58;;;;;;;;;;;25.00;78.30;;;;;;5048258;28;22130;-73
2022/12/01 04:31:25;;;;;;;;;;;24.80;79.40;;;;;;5056167;28;19908;-74
2022/12/01 04:33:53;;;;;;;;;;;24.20;79.30;;;;;;5058025;28;19964;-74
2022/12/01 04:36:19;;;;;;;;;;;23.90;80.80;;;;;;5055193;28;19926;-75
2022/12/01 04:38:46;;;;;;;;;;;23.90;81.30;;;;;;5059364;28;19908;-74
2022/12/01 04:41:13;;;;;;;;;;;23.80;81.70;;;;;;5058272;28;19913;-78
2022/12/01 04:43:40;;;;;;;;;;;23.80;81.80;;;;;;5060560;28;19909;-78
2022/12/01 04:46:07;;;;;;;;;;;23.80;82.10;;;;;;5059989;28;19909;-74
2022/12/01 04:48:36;;;;;;;;;;;24.30;81.10;;;;;;5057098;28;20774;-72
2022/12/01 04:51:04;;;;;;;;;;;24.50;80.10;;;;;;5054736;28;20059;-74
2022/12/01 04:53:31;;;;;;;;;;;24.50;79.50;;;;;;5055957;28;20007;-73
2022/12/01 04:56:01;;;;;;;;;;;24.50;79.80;;;;;;5055139;28;20588;-76
2022/12/01 04:58:28;;;;;;;;;;;25.10;78.30;;;;;;5043392;28;19913;-78
2022/12/01 05:01:00;;;;;;;;;;;25.50;77.50;;;;;;5052705;28;19923;-74
2022/12/01 05:03:26;;;;;;;;;;;25.40;77.70;;;;;;5047039;28;19913;-73
2022/12/01 05:06:04;;;;;;;;;;;25.10;78.30;;;;;;5043493;28;19935;-73
2022/12/01 05:08:30;;;;;;;;;;;25.00;80.20;;;;;;5055618;28;19909;-73
2022/12/01 05:10:57;;;;;;;;;;;25.20;78.50;;;;;;5045651;28;19913;-77
2022/12/01 05:13:24;;;;;;;;;;;25.40;76.10;;;;;;5053880;28;19918;-75
2022/12/01 05:15:50;;;;;;;;;;;25.30;77.10;;;;;;5052811;28;19912;-74
2022/12/01 05:18:17;;;;;;;;;;;25.60;76.70;;;;;;5043942;28;20358;-76
2022/12/01 05:20:59;;;;;;;;;;;25.80;77.20;;;;;;5041306;28;20329;-75
2022/12/01 05:23:26;;;;;;;;;;;25.40;76.60;;;;;;5048960;28;19962;-74
2022/12/01 05:25:53;;;;;;;;;;;25.10;77.50;;;;;;5057406;28;19919;-76
2022/12/01 05:28:21;;;;;;;;;;;25.60;77.30;;;;;;5055745;28;20278;-74
2022/12/01 05:30:51;;;;;;;;;;;25.30;77.30;;;;;;5058023;28;19908;-73
2022/12/01 05:33:18;;;;;;;;;;;24.90;77.10;;;;;;5046766;28;19956;-74
2022/12/01 05:35:44;;;;;;;;;;;25.00;78.60;;;;;;5046784;28;19912;-75
2022/12/01 05:38:11;;;;;;;;;;;25.60;77.40;;;;;;5054403;28;19916;-75
2022/12/01 05:40:38;;;;;;;;;;;25.60;76.80;;;;;;5057087;28;19932;-78
2022/12/01 05:43:04;;;;;;;;;;;25.50;76.30;;;;;;5057019;28;19916;-77
2022/12/01 05:45:31;;;;;;;;;;;25.50;76.30;;;;;;5047376;28;20388;-78
2022/12/01 05:48:01;;;;;;;;;;;25.30;77.30;;;;;;5056779;28;19935;-81
2022/12/01 05:50:29;;;;;;;;;;;25.20;77.10;;;;;;5050175;28;19916;-77
2022/12/01 05:52:56;;;;;;;;;;;25.50;76.30;;;;;;5051212;28;19919;-74
2022/12/01 05:55:22;;;;;;;;;;;25.70;75.10;;;;;;5038861;28;19920;-76
2022/12/01 05:57:49;;;;;;;;;;;25.70;74.90;;;;;;5053465;28;20003;-76
2022/12/01 06:00:16;;;;;;;;;;;25.50;75.50;;;;;;5044872;28;20437;-79
2022/12/01 06:02:42;;;;;;;;;;;25.50;76.30;;;;;;5047490;28;19973;-77
2022/12/01 06:05:09;;;;;;;;;;;25.10;76.40;;;;;;5050983;28;19923;-70
2022/12/01 06:07:38;;;;;;;;;;;24.90;77.10;;;;;;5045342;28;19917;-75
2022/12/01 06:10:06;;;;;;;;;;;24.70;79.40;;;;;;5054036;28;19916;-76
2022/12/01 06:12:33;;;;;;;;;;;24.60;78.00;;;;;;5055360;28;19909;-76
2022/12/01 06:15:00;;;;;;;;;;;24.50;78.80;;;;;;5050203;28;20614;-75
2022/12/01 06:17:26;;;;;;;;;;;24.30;80.10;;;;;;5040200;28;20389;-75
2022/12/01 06:19:53;;;;;;;;;;;24.30;80.00;;;;;;5045822;28;20001;-73
2022/12/01 06:22:20;;;;;;;;;;;24.30;78.80;;;;;;5056577;28;19958;-74
2022/12/01 06:24:46;;;;;;;;;;;24.40;78.70;;;;;;5044983;28;19920;-74
2022/12/01 06:27:13;;;;;;;;;;;24.30;78.50;;;;;;5045761;28;19926;-75
2022/12/01 06:29:40;;;;;;;;;;;24.10;78.70;;;;;;5034549;28;19919;-73
2022/12/01 06:32:06;;;;;;;;;;;24.00;77.90;;;;;;5046087;28;20311;-75
2022/12/01 06:34:33;;;;;;;;;;;24.20;78.40;;;;;;5054616;28;19923;-73
2022/12/01 06:37:00;;;;;;;;;;;24.30;78.20;;;;;;5044251;28;19913;-73
2022/12/01 06:39:26;;;;;;;;;;;24.30;78.20;;;;;;5056456;28;19946;-73
2022/12/01 06:41:53;;;;;;;;;;;24.50;77.70;;;;;;5064238;28;19912;-73
2022/12/01 06:44:20;;;;;;;;;;;24.60;76.70;;;;;;5058009;28;20323;-75
2022/12/01 06:46:51;;;;;;;;;;;24.60;76.30;;;;;;5058366;28;19915;-77
2022/12/01 06:49:18;;;;;;;;;;;24.60;76.50;;;;;;5050760;28;20166;-79
2022/12/01 06:51:45;;;;;;;;;;;24.50;76.80;;;;;;5039044;28;20104;-77
2022/12/01 06:54:13;;;;;;;;;;;24.00;77.60;;;;;;5043913;28;19927;-74
2022/12/01 06:56:41;;;;;;;;;;;23.70;78.40;;;;;;5045475;28;20441;-79
2022/12/01 06:59:08;;;;;;;;;;;23.70;78.30;;;;;;5036039;28;19913;-76
2022/12/01 07:01:35;;;;;;;;;;;23.60;78.90;;;;;;5063514;28;19917;-76
2022/12/01 07:04:01;;;;;;;;;;;23.60;79.30;;;;;;5049991;28;19915;-79
2022/12/01 07:06:31;;;;;;;;;;;23.30;79.40;;;;;;5056305;28;20348;-74
2022/12/01 07:08:58;;;;;;;;;;;23.20;81.30;;;;;;5056517;28;19920;-76
2022/12/01 07:11:25;;;;;;;;;;;23.10;80.60;;;;;;5051402;28;20331;-75
2022/12/01 07:13:54;;;;;;;;;;;22.80;81.60;;;;;;5051544;28;19920;-76
2022/12/01 07:16:21;;;;;;;;;;;22.90;82.10;;;;;;5056507;28;19913;-72
2022/12/01 07:18:48;;;;;;;;;;;23.00;81.20;;;;;;5046428;28;19916;-73
2022/12/01 07:21:15;;;;;;;;;;;22.90;80.40;;;;;;5059433;28;19920;-75
2022/12/01 07:23:42;;;;;;;;;;;22.90;80.10;;;;;;5041345;28;20292;-75
2022/12/01 07:26:12;;;;;;;;;;;22.70;80.70;;;;;;5045417;28;20377;-74
2022/12/01 07:28:38;;;;;;;;;;;22.80;81.70;;;;;;5045517;28;20572;-76
2022/12/01 07:31:09;;;;;;;;;;;22.50;83.00;;;;;;5045625;28;19920;-74
2022/12/01 07:33:36;;;;;;;;;;;22.50;83.20;;;;;;5045010;28;19923;-72
2022/12/01 07:36:02;;;;;;;;;;;22.20;83.30;;;;;;5056627;28;20313;-74
2022/12/01 07:38:30;;;;;;;;;;;22.20;84.60;;;;;;5056439;28;19987;-73
2022/12/01 07:41:03;;;;;;;;;;;22.30;85.10;;;;;;5052563;28;19990;-73
2022/12/01 07:43:31;;;;;;;;;;;22.30;85.70;;;;;;5045023;28;20343;-73
2022/12/01 07:46:17;;;;;;;;;;;22.40;85.90;;;;;;5054609;28;19916;-76
2022/12/01 07:48:44;;;;;;;;;;;22.40;86.60;;;;;;5035475;28;19946;-75
2022/12/01 07:51:13;;;;;;;;;;;22.40;87.50;;;;;;5044872;28;19913;-74
2022/12/01 07:53:40;;;;;;;;;;;22.30;87.90;;;;;;5046743;28;20279;-73
2022/12/01 07:56:07;;;;;;;;;;;22.20;88.70;;;;;;5054540;28;19916;-74
2022/12/01 07:58:34;;;;;;;;;;;22.20;89.20;;;;;;5082502;28;19978;-74
2022/12/01 08:01:11;;;;;;;;;;;22.00;88.40;;;;;;5058338;28;19966;-76
2022/12/01 08:03:38;;;;;;;;;;;21.80;89.80;;;;;;5056615;28;20277;-73
2022/12/01 08:06:05;;;;;;;;;;;21.70;90.00;;;;;;5060206;28;20313;-71
2022/12/01 08:08:33;;;;;;;;;;;21.70;90.20;;;;;;5060181;28;20368;-74
2022/12/01 08:11:01;;;;;;;;;;;21.60;90.20;;;;;;5058501;28;20769;-75
2022/12/01 08:13:28;;;;;;;;;;;21.50;90.20;;;;;;5059114;28;19917;-76
2022/12/01 08:15:54;;;;;;;;;;;21.40;90.40;;;;;;5052122;28;19924;-76
2022/12/01 08:18:21;;;;;;;;;;;21.30;90.60;;;;;;5063181;28;20339;-78
2022/12/01 08:20:49;;;;;;;;;;;21.10;90.70;;;;;;5045173;28;19913;-75
2022/12/01 08:23:15;;;;;;;;;;;21.10;90.80;;;;;;5045347;28;20334;-74
2022/12/01 08:25:42;;;;;;;;;;;21.20;90.80;;;;;;5046943;28;19920;-76
2022/12/01 08:28:09;;;;;;;;;;;21.10;90.80;;;;;;5050925;28;19920;-74
2022/12/01 08:30:36;;;;;;;;;;;21.10;90.80;;;;;;5053841;28;19920;-73
2022/12/01 08:33:02;;;;;;;;;;;21.10;91.00;;;;;;5053801;28;19980;-71
2022/12/01 08:35:29;;;;;;;;;;;21.10;91.00;;;;;;5058233;28;20340;-72
2022/12/01 08:37:56;;;;;;;;;;;21.10;91.10;;;;;;5053345;28;19915;-72
2022/12/01 08:40:22;;;;;;;;;;;20.90;91.20;;;;;;5037596;28;19909;-72
2022/12/01 08:42:51;;;;;;;;;;;20.90;91.40;;;;;;5036665;28;19921;-71
2022/12/01 08:45:19;;;;;;;;;;;20.80;91.30;;;;;;5038267;28;19916;-70
2022/12/01 08:47:46;;;;;;;;;;;20.70;91.40;;;;;;5038025;28;19909;-72
2022/12/01 08:50:12;;;;;;;;;;;20.70;91.50;;;;;;5039958;28;20034;-72
2022/12/01 08:52:39;;;;;;;;;;;20.60;91.40;;;;;;5040046;28;20345;-70
2022/12/01 08:55:06;;;;;;;;;;;20.50;91.40;;;;;;5038375;28;20495;-72
2022/12/01 08:57:33;;;;;;;;;;;20.50;91.40;;;;;;5039230;28;19909;-71
2022/12/01 08:59:59;;;;;;;;;;;20.40;91.70;;;;;;5037782;28;19963;-70
2022/12/01 09:02:26;;;;;;;;;;;20.40;91.90;;;;;;5039544;28;19991;-72
2022/12/01 09:04:53;;;;;;;;;;;20.30;92.00;;;;;;5037690;28;19993;-73
2022/12/01 09:07:19;;;;;;;;;;;20.30;92.20;;;;;;5039644;28;19923;-71
2022/12/01 09:09:47;;;;;;;;;;;20.20;92.30;;;;;;5039075;28;19909;-70
2022/12/01 09:12:13;;;;;;;;;;;20.10;92.50;;;;;;5039445;28;20321;-73
2022/12/01 09:14:41;;;;;;;;;;;20.30;92.70;;;;;;5038940;28;19916;-70
2022/12/01 09:17:08;;;;;;;;;;;20.10;92.90;;;;;;5037510;28;19962;-71
2022/12/01 09:19:35;;;;;;;;;;;20.00;93.10;;;;;;5038947;28;20031;-70
2022/12/01 09:22:01;;;;;;;;;;;20.00;93.10;;;;;;5037814;28;19963;-71
2022/12/01 09:24:28;;;;;;;;;;;20.00;93.30;;;;;;5038590;28;20277;-69
2022/12/01 09:26:56;;;;;;;;;;;19.90;93.10;;;;;;5037226;28;19916;-71
2022/12/01 09:29:22;;;;;;;;;;;19.80;93.20;;;;;;5037915;28;20271;-72
2022/12/01 09:31:49;;;;;;;;;;;19.80;93.30;;;;;;5037408;28;20238;-73
2022/12/01 09:34:17;;;;;;;;;;;19.80;93.30;;;;;;5043672;28;19947;-71
2022/12/01 09:36:45;;;;;;;;;;;19.70;93.40;;;;;;5055972;28;19908;-71
2022/12/01 09:39:13;;;;;;;;;;;19.70;93.60;;;;;;5051442;28;19916;-74
2022/12/01 09:41:45;;;;;;;;;;;19.70;93.60;;;;;;5049920;28;20011;-72
2022/12/01 09:44:19;;;;;;;;;;;19.70;93.60;;;;;;5043500;28;20456;-72
2022/12/01 09:46:58;;;;;;;;;;;19.60;93.80;;;;;;5044920;28;19966;-70
2022/12/01 09:49:42;;;;;;;;;;;19.60;93.80;;;;;;5048262;28;19961;-71
2022/12/01 09:52:14;;;;;;;;;;;19.60;93.90;;;;;;5048366;28;19912;-71
2022/12/01 09:54:40;;;;;;;;;;;19.50;94.00;;;;;;5068871;28;20744;-71
2022/12/01 09:57:14;;;;;;;;;;;19.60;94.00;;;;;;5052332;28;19920;-71
2022/12/01 09:59:42;;;;;;;;;;;19.50;94.00;;;;;;5046633;28;19963;-71
2022/12/01 10:02:21;;;;;;;;;;;19.50;94.10;;;;;;5045740;28;19982;-72
2022/12/01 10:04:50;;;;;;;;;;;19.50;93.80;;;;;;5045343;28;19996;-73
2022/12/01 10:07:31;;;;;;;;;;;19.50;93.60;;;;;;5044983;28;19958;-70
2022/12/01 10:10:03;;;;;;;;;;;19.50;93.50;;;;;;5049527;28;19923;-71
2022/12/01 10:12:31;;;;;;;;;;;19.40;93.50;;;;;;5052128;28;20384;-69
2022/12/01 10:15:10;;;;;;;;;;;19.40;93.30;;;;;;5056112;28;20372;-70
2022/12/01 10:17:45;;;;;;;;;;;19.30;93.30;;;;;;5053818;28;19912;-69
2022/12/01 10:20:21;;;;;;;;;;;19.30;93.40;;;;;;5044232;28;19917;-69
2022/12/01 10:22:48;;;;;;;;;;;19.30;93.40;;;;;;5044650;28;20336;-71
2022/12/01 10:25:22;;;;;;;;;;;19.30;93.60;;;;;;5048509;28;19912;-70
2022/12/01 10:27:58;;;;;;;;;;;19.20;93.60;;;;;;5053228;28;19917;-70
2022/12/01 10:30:25;;;;;;;;;;;19.20;93.70;;;;;;5050276;28;19912;-69
2022/12/01 10:32:57;;;;;;;;;;;19.10;93.70;;;;;;5042408;28;19912;-72
2022/12/01 10:35:25;;;;;;;;;;;19.20;93.70;;;;;;5043711;28;20020;-71
2022/12/01 10:38:00;;;;;;;;;;;19.20;93.70;;;;;;5046151;28;19966;-70
2022/12/01 10:40:27;;;;;;;;;;;19.20;93.60;;;;;;5046461;28;19913;-70
2022/12/01 10:42:54;;;;;;;;;;;19.20;93.70;;;;;;5045090;28;19916;-70
2022/12/01 10:45:28;;;;;;;;;;;19.20;93.70;;;;;;5044370;28;19924;-70
2022/12/01 10:48:09;;;;;;;;;;;19.20;93.60;;;;;;5045411;28;19912;-70
2022/12/01 10:50:36;;;;;;;;;;;19.20;93.80;;;;;;5046113;28;20345;-72
2022/12/01 10:53:03;;;;;;;;;;;19.10;93.80;;;;;;5044564;28;19920;-73
2022/12/01 10:55:35;;;;;;;;;;;19.20;93.90;;;;;;5046223;28;19916;-71
2022/12/01 10:58:12;;;;;;;;;;;19.10;94.00;;;;;;5046249;28;19913;-70
2022/12/01 11:00:40;;;;;;;;;;;19.10;94.00;;;;;;5036740;28;19935;-70
2022/12/01 11:03:17;;;;;;;;;;;19.10;94.10;;;;;;5044758;28;20269;-70
2022/12/01 11:05:43;;;;;;;;;;;19.10;93.80;;;;;;5056373;28;19958;-71
2022/12/01 11:08:21;;;;;;;;;;;19.00;93.70;;;;;;5047933;28;19912;-72
2022/12/01 11:10:48;;;;;;;;;;;19.00;93.80;;;;;;5046445;28;20275;-72
2022/12/01 11:13:19;;;;;;;;;;;18.90;93.80;;;;;;5054598;28;19927;-72
2022/12/01 11:15:56;;;;;;;;;;;18.90;93.90;;;;;;5042653;28;20774;-70
2022/12/01 11:18:32;;;;;;;;;;;18.80;94.00;;;;;;5046802;28;20813;-73
2022/12/01 11:21:07;;;;;;;;;;;18.80;94.20;;;;;;5049161;28;19956;-71
2022/12/01 11:23:37;;;;;;;;;;;18.80;94.40;;;;;;5046375;28;19968;-70
2022/12/01 11:26:10;;;;;;;;;;;18.80;94.50;;;;;;5046927;28;19992;-71
2022/12/01 11:28:40;;;;;;;;;;;18.90;94.60;;;;;;5043598;28;19916;-72
2022/12/01 11:31:08;;;;;;;;;;;18.90;94.60;;;;;;5037688;28;19920;-72
2022/12/01 11:33:43;;;;;;;;;;;18.80;94.60;;;;;;5045097;28;20015;-71
2022/12/01 11:36:10;;;;;;;;;;;18.70;94.70;;;;;;5054542;28;19912;-72
2022/12/01 11:38:36;;;;;;;;;;;18.70;94.50;;;;;;5051945;28;19916;-72
2022/12/01 11:41:03;;;;;;;;;;;18.70;94.30;;;;;;5054089;28;19908;-71
2022/12/01 11:43:32;;;;;;;;;;;18.70;94.20;;;;;;5033557;28;19909;-73
2022/12/01 11:46:02;;;;;;;;;;;18.70;93.60;;;;;;5035042;28;19913;-72
2022/12/01 11:48:30;;;;;;;;;;;18.70;92.90;;;;;;5036776;28;19919;-71
2022/12/01 11:51:25;;;;;;;;;;;18.80;92.80;;;;;;5035047;28;19978;-72
2022/12/01 11:54:04;;;;;;;;;;;18.70;92.90;;;;;;5052793;28;19920;-72
2022/12/01 11:56:31;;;;;;;;;;;18.70;92.60;;;;;;5048450;28;20382;-71
2022/12/01 11:59:02;;;;;;;;;;;18.80;92.80;;;;;;5055955;28;19908;-72
2022/12/01 12:01:47;;;;;;;;;;;18.70;92.80;;;;;;5054551;28;19912;-73
2022/12/01 12:04:19;;;;;;;;;;;18.60;92.90;;;;;;5058571;28;19908;-71
2022/12/01 12:06:58;;;;;;;;;;;18.60;93.20;;;;;;5043791;28;20051;-71
2022/12/01 12:09:43;;;;;;;;;;;18.50;93.30;;;;;;5038479;28;20004;-71
2022/12/01 12:12:40;;;;;;;;;;;18.50;93.40;;;;;;5037692;28;19916;-69
2022/12/01 12:15:25;;;;;;;;;;;18.50;93.60;;;;;;5036036;28;20366;-70
2022/12/01 12:18:07;;;;;;;;;;;18.40;93.70;;;;;;5035089;28;20272;-72
2022/12/01 12:20:52;;;;;;;;;;;18.40;93.80;;;;;;5039253;28;19924;-70
2022/12/01 12:23:23;;;;;;;;;;;18.30;94.10;;;;;;5037220;28;19921;-72
2022/12/01 12:26:08;;;;;;;;;;;18.30;94.20;;;;;;5036454;28;19913;-72
2022/12/01 12:28:34;;;;;;;;;;;18.40;94.30;;;;;;5039201;28;19913;-73
2022/12/01 12:31:07;;;;;;;;;;;18.40;94.30;;;;;;5036065;28;19987;-70
2022/12/01 12:33:43;;;;;;;;;;;18.40;94.50;;;;;;5039099;28;19917;-71
2022/12/01 12:36:28;;;;;;;;;;;18.40;94.50;;;;;;5035240;28;20266;-72
2022/12/01 12:39:17;;;;;;;;;;;18.40;94.60;;;;;;5034853;28;19948;-72
2022/12/01 12:42:05;;;;;;;;;;;18.50;94.80;;;;;;5038807;28;20367;-71
2022/12/01 12:44:32;;;;;;;;;;;18.60;94.90;;;;;;5038239;28;19919;-72
2022/12/01 12:47:09;;;;;;;;;;;18.60;94.80;;;;;;5038822;28;19913;-72
2022/12/01 12:49:40;;;;;;;;;;;18.60;94.90;;;;;;5041755;28;19912;-72
2022/12/01 12:52:15;;;;;;;;;;;18.50;95.00;;;;;;5039970;28;19909;-72
2022/12/01 12:54:58;;;;;;;;;;;18.50;95.10;;;;;;5040968;28;19916;-71
2022/12/01 12:57:31;;;;;;;;;;;18.50;95.20;;;;;;5042600;28;19956;-69
2022/12/01 13:00:04;;;;;;;;;;;18.60;95.30;;;;;;5038945;28;20258;-71
2022/12/01 13:02:45;;;;;;;;;;;18.60;95.40;;;;;;5041559;28;19996;-70
2022/12/01 13:05:20;;;;;;;;;;;18.60;95.40;;;;;;5039117;28;20301;-69
2022/12/01 13:07:53;;;;;;;;;;;18.50;95.40;;;;;;5041052;28;19959;-69
2022/12/01 13:10:36;;;;;;;;;;;18.60;95.30;;;;;;5040855;28;19920;-70
2022/12/01 13:13:16;;;;;;;;;;;18.50;95.10;;;;;;5038277;28;19909;-69
2022/12/01 13:15:43;;;;;;;;;;;18.50;95.00;;;;;;5041175;28;19919;-71
2022/12/01 13:18:24;;;;;;;;;;;18.40;95.20;;;;;;5038240;28;19912;-72
2022/12/01 13:20:53;;;;;;;;;;;18.40;94.90;;;;;;5041982;28;19932;-71
2022/12/01 13:23:21;;;;;;;;;;;18.40;94.90;;;;;;5039666;28;19927;-70
2022/12/01 13:25:48;;;;;;;;;;;18.40;94.90;;;;;;5040592;28;19994;-70
2022/12/01 13:28:35;;;;;;;;;;;18.40;94.80;;;;;;5037862;28;19917;-69
2022/12/01 13:31:03;;;;;;;;;;;18.40;94.80;;;;;;5028078;28;19944;-71
2022/12/01 13:33:30;;;;;;;;;;;18.40;94.80;;;;;;5042128;28;20016;-70
2022/12/01 13:35:57;;;;;;;;;;;18.40;94.90;;;;;;5040955;28;19920;-69
2022/12/01 13:38:24;;;;;;;;;;;18.40;95.20;;;;;;5040579;28;19909;-70
2022/12/01 13:41:19;;;;;;;;;;;18.40;95.00;;;;;;5040332;28;19912;-69
2022/12/01 13:43:52;;;;;;;;;;;18.30;94.90;;;;;;5040890;28;20000;-72
2022/12/01 13:46:24;;;;;;;;;;;18.30;95.20;;;;;;5048330;28;20325;-72
2022/12/01 13:48:53;;;;;;;;;;;18.30;95.30;;;;;;5060269;28;19921;-72
2022/12/01 13:51:20;;;;;;;;;;;18.30;95.20;;;;;;5057679;28;19916;-72
2022/12/01 13:54:04;;;;;;;;;;;18.30;95.10;;;;;;5059580;28;20399;-70
2022/12/01 13:56:33;;;;;;;;;;;18.30;95.10;;;;;;5056850;28;19913;-72
2022/12/01 13:59:00;;;;;;;;;;;18.30;95.10;;;;;;5058811;28;19909;-70
2022/12/01 14:01:28;;;;;;;;;;;18.40;95.20;;;;;;5056525;28;19919;-69
2022/12/01 14:04:00;;;;;;;;;;;18.30;95.40;;;;;;5059233;28;19931;-69
2022/12/01 14:06:26;;;;;;;;;;;18.30;95.40;;;;;;5055570;28;19977;-71
2022/12/01 14:09:16;;;;;;;;;;;18.30;95.40;;;;;;5059391;28;19916;-71
2022/12/01 14:11:54;;;;;;;;;;;18.30;95.60;;;;;;5053546;28;19917;-70
2022/12/01 14:14:22;;;;;;;;;;;18.20;95.70;;;;;;5057308;28;19916;-71
2022/12/01 14:16:51;;;;;;;;;;;18.20;95.80;;;;;;5058349;28;20008;-70
2022/12/01 14:19:30;;;;;;;;;;;18.20;96.00;;;;;;5058264;28;19958;-70
2022/12/01 14:21:56;;;;;;;;;;;18.20;96.20;;;;;;5059125;28;19930;-69
2022/12/01 14:24:26;;;;;;;;;;;18.10;96.30;;;;;;5056294;28;20733;-70
2022/12/01 14:26:54;;;;;;;;;;;18.20;96.50;;;;;;5059880;28;19915;-69
2022/12/01 14:29:25;;;;;;;;;;;18.10;96.70;;;;;;5057000;28;19919;-70
2022/12/01 14:31:51;;;;;;;;;;;18.20;96.90;;;;;;5058180;28;19917;-70
2022/12/01 14:34:23;;;;;;;;;;;18.20;96.90;;;;;;5058747;28;19917;-71